createdAt,value
2023-03-28T00:05:18.925Z,97767.25
2023-03-28T00:25:22.304Z,97772.56
2023-03-28T00:45:25.099Z,97765.19
2023-03-28T01:05:27.898Z,97761.63
2023-03-28T01:25:30.757Z,97749.94
2023-03-28T01:45:33.500Z,97756.00
2023-03-28T02:05:36.235Z,97743.03
2023-03-28T02:25:40.966Z,97738.41
2023-03-28T02:45:43.796Z,97739.25
2023-03-28T03:05:46.822Z,97723.94
2023-03-28T03:25:52.260Z,97712.47
2023-03-28T03:45:54.947Z,97725.25
2023-03-28T04:05:59.417Z,97710.03
2023-03-28T04:26:03.748Z,97691.63
2023-03-28T04:46:07.482Z,97708.53
2023-03-28T05:06:10.352Z,97697.25
2023-03-28T05:26:13.370Z,97712.41
2023-03-28T05:46:16.424Z,97733.44
2023-03-28T06:06:19.392Z,97730.44
2023-03-28T06:26:22.289Z,97739.94
2023-03-28T06:46:25.076Z,97754.84
2023-03-28T07:06:28.305Z,97787.06
2023-03-28T07:26:31.246Z,97804.34
2023-03-28T07:46:34.556Z,97833.41
2023-03-28T08:06:39.471Z,97872.47
2023-03-28T08:26:42.432Z,97898.25
2023-03-28T08:46:45.199Z,97955.56
2023-03-28T09:06:48.161Z,97989.19
2023-03-28T09:26:50.938Z,98000.66
2023-03-28T09:46:53.605Z,98017.72
2023-03-28T10:06:56.513Z,98048.28
2023-03-28T10:26:59.172Z,98062.25
2023-03-28T10:47:01.970Z,98096.34
2023-03-28T11:07:04.705Z,98097.41
2023-03-28T11:27:15.457Z,98123.38
2023-03-28T11:47:19.303Z,98102.09
2023-03-28T12:07:22.611Z,98086.34
2023-03-28T12:27:26.870Z,98209.97
2023-03-28T12:47:29.685Z,98161.19
2023-03-28T13:07:32.602Z,98197.41
2023-03-28T13:27:35.325Z,98248.75
2023-03-28T13:47:38.254Z,98266.06
2023-03-28T14:07:41.166Z,98246.91
2023-03-28T14:27:43.873Z,98258.31
2023-03-28T14:47:46.659Z,98246.56
2023-03-28T15:07:49.518Z,98281.16
2023-03-28T15:27:52.594Z,98275.94
2023-03-28T15:47:58.675Z,98292.00
2023-03-28T16:08:01.845Z,98303.75
2023-03-28T16:28:04.560Z,98338.09
2023-03-28T16:48:08.548Z,98371.84
2023-03-28T17:08:11.695Z,98420.44
2023-03-28T17:28:14.672Z,98446.59
2023-03-28T17:48:17.791Z,98475.84
2023-03-28T18:08:20.638Z,98524.09
2023-03-28T18:28:24.775Z,98543.75
2023-03-28T18:48:29.639Z,98564.44
2023-03-28T19:08:32.676Z,98582.53
2023-03-28T19:28:35.640Z,98587.94
2023-03-28T19:48:38.972Z,98598.56
2023-03-28T20:08:42.661Z,98611.66
2023-03-28T20:28:47.613Z,98602.62
2023-03-28T20:48:53.510Z,98610.81
2023-03-28T21:08:56.974Z,98607.19
2023-03-28T21:29:00.260Z,98629.75
2023-03-28T21:49:03.660Z,98647.28
2023-03-28T22:09:06.598Z,98653.63
2023-03-28T22:29:09.354Z,98649.16
2023-03-28T22:49:14.359Z,98661.91
2023-03-28T23:09:17.275Z,98668.16
2023-03-28T23:29:19.932Z,98684.13
2023-03-28T23:49:22.801Z,98695.44
